Time;durP1;ratioP1;P1;durP2;ratioP2;P2;SDS_P1;SDS_P2;PMS_P1;PMS_P2;Temp;Humidity;BMP_temperature;BMP_pressure;BME280_temperature;BME280_humidity;BME280_pressure;Samples;Min_cycle;Max_cycle;Signal;HPM_P1;HPM_P2
2021/06/10 00:00:15;;;;;;;9.18;4.82;;;;;;;12.22;76.98;93345.63;5071925;28;20016;-40
2021/06/10 00:02:41;;;;;;;6.47;4.70;;;;;;;12.17;76.89;93341.78;5071835;28;20039;-39
2021/06/10 00:05:08;;;;;;;9.25;3.85;;;;;;;12.16;77.67;93318.19;5072319;28;20032;-43
2021/06/10 00:07:34;;;;;;;8.57;4.72;;;;;;;12.11;77.81;93330.19;5071795;28;20051;-44
2021/06/10 00:09:59;;;;;;;10.55;4.80;;;;;;;12.06;78.31;93339.44;5071741;28;20090;-43
2021/06/10 00:12:25;;;;;;;5.90;4.13;;;;;;;12.21;77.56;93321.31;5072057;28;20028;-39
2021/06/10 00:14:50;;;;;;;5.65;4.40;;;;;;;12.18;76.82;93326.66;5072186;28;20539;-39
2021/06/10 00:17:16;;;;;;;8.05;4.63;;;;;;;12.18;77.11;93331.47;5071678;28;20029;-39
2021/06/10 00:19:42;;;;;;;6.72;4.55;;;;;;;12.14;76.94;93331.84;5070708;28;20025;-38
2021/06/10 00:22:07;;;;;;;6.50;4.85;;;;;;;12.05;77.59;93324.16;5071317;28;20029;-40
2021/06/10 00:24:33;;;;;;;9.98;6.18;;;;;;;12.09;77.73;93326.53;5071887;28;20020;-41
2021/06/10 00:26:58;;;;;;;10.13;5.45;;;;;;;12.17;76.89;93319.66;5071717;28;20382;-41
2021/06/10 00:29:24;;;;;;;5.35;3.42;;;;;;;12.26;76.90;93326.59;5071741;28;20020;-39
2021/06/10 00:31:49;;;;;;;5.53;3.60;;;;;;;12.23;76.46;93324.97;5071305;28;20048;-39
2021/06/10 00:34:15;;;;;;;6.43;4.28;;;;;;;12.24;76.48;93328.47;5071430;28;20170;-39
2021/06/10 00:36:41;;;;;;;8.00;4.50;;;;;;;12.27;77.21;93324.56;5050768;28;20021;-40
2021/06/10 00:39:07;;;;;;;4.75;3.67;;;;;;;12.23;77.52;93321.47;5063994;28;20732;-39
2021/06/10 00:41:33;;;;;;;3.58;3.15;;;;;;;12.12;77.83;93314.34;5051554;28;20091;-39
2021/06/10 00:44:00;;;;;;;5.05;4.00;;;;;;;12.23;77.39;93310.41;5050968;28;20029;-38
2021/06/10 00:46:26;;;;;;;6.18;4.22;;;;;;;12.08;77.41;93308.47;5051031;28;20029;-38
2021/06/10 00:48:52;;;;;;;6.88;4.40;;;;;;;12.23;76.83;93316.69;5051377;28;20033;-40
2021/06/10 00:51:17;;;;;;;5.38;3.75;;;;;;;12.33;76.52;93314.75;5051135;28;20516;-39
2021/06/10 00:53:43;;;;;;;8.15;4.72;;;;;;;12.28;77.02;93303.91;5051374;28;20498;-41
2021/06/10 00:56:09;;;;;;;6.43;4.97;;;;;;;12.33;77.30;93305.72;5050810;28;20478;-39
2021/06/10 00:58:35;;;;;;;6.30;3.70;;;;;;;12.40;77.61;93302.91;5050592;28;20041;-40
2021/06/10 01:01:01;;;;;;;6.13;4.57;;;;;;;12.31;78.17;93297.22;5050876;28;20143;-42
2021/06/10 01:03:27;;;;;;;4.60;3.45;;;;;;;12.27;78.13;93305.19;5050969;28;20036;-48
2021/06/10 01:05:56;;;;;;;3.38;3.08;;;;;;;12.26;78.12;93312.75;5051056;28;20429;-47
2021/06/10 01:08:34;;;;;;;4.70;3.55;;;;;;;12.27;78.05;93305.19;5050580;28;20117;-43
2021/06/10 01:11:16;;;;;;;3.42;2.75;;;;;;;12.24;77.92;93300.78;5050530;28;20087;-43
2021/06/10 01:14:03;;;;;;;5.05;3.58;;;;;;;12.27;77.64;93305.94;5050908;28;20025;-46
2021/06/10 01:16:30;;;;;;;3.63;3.22;;;;;;;12.31;78.15;93300.00;5049305;28;20025;-42
2021/06/10 01:18:56;;;;;;;3.63;2.90;;;;;;;12.30;78.16;93304.09;5050623;28;20040;-42
2021/06/10 01:21:23;;;;;;;4.63;3.50;;;;;;;12.29;77.63;93300.56;5049573;28;20032;-42
2021/06/10 01:23:48;;;;;;;5.85;3.88;;;;;;;12.22;78.25;93297.84;5049606;28;20409;-44
2021/06/10 01:26:34;;;;;;;7.38;3.40;;;;;;;12.21;77.96;93302.66;5053746;28;20028;-41
2021/06/10 01:29:05;;;;;;;5.05;2.63;;;;;;;12.08;78.59;93300.88;5070612;28;20041;-50
2021/06/10 01:31:31;;;;;;;4.43;3.22;;;;;;;12.03;78.35;93301.09;5069987;28;20112;-50
2021/06/10 01:33:58;;;;;;;7.07;3.65;;;;;;;12.09;78.50;93302.34;5070447;28;20106;-46
2021/06/10 01:36:30;;;;;;;5.43;3.50;;;;;;;12.02;78.65;93289.28;5051227;28;20029;-46
2021/06/10 01:38:58;;;;;;;5.93;3.80;;;;;;;11.96;79.31;93299.84;5050174;28;20051;-45
2021/06/10 01:41:25;;;;;;;2.67;2.47;;;;;;;12.05;78.17;93307.53;5049843;28;20488;-45
2021/06/10 01:43:52;;;;;;;3.15;2.28;;;;;;;12.10;77.59;93309.38;5049098;28;20418;-47
2021/06/10 01:46:17;;;;;;;3.88;2.55;;;;;;;12.01;77.24;93301.66;5048719;28;20044;-50
2021/06/10 01:48:45;;;;;;;2.20;1.90;;;;;;;11.92;77.43;93305.03;5048950;28;20028;-46
2021/06/10 01:51:11;;;;;;;3.22;2.13;;;;;;;12.02;76.50;93294.81;5048815;28;20033;-49
2021/06/10 01:53:38;;;;;;;4.80;2.47;;;;;;;11.99;76.33;93298.00;5049899;28;20029;-49
2021/06/10 01:56:04;;;;;;;2.83;2.47;;;;;;;12.00;76.33;93289.13;5048263;28;20426;-50
2021/06/10 01:58:30;;;;;;;4.97;2.33;;;;;;;11.96;75.86;93282.50;5049997;28;20028;-50
2021/06/10 02:00:56;;;;;;;6.25;3.85;;;;;;;11.97;75.77;93289.53;5048751;28;20083;-42
2021/06/10 02:03:22;;;;;;;6.55;3.45;;;;;;;11.95;76.49;93289.34;5049699;28;20021;-43
2021/06/10 02:05:49;;;;;;;11.13;4.63;;;;;;;11.74;76.81;93283.34;5049955;28;20033;-44
2021/06/10 02:08:17;;;;;;;13.38;5.97;;;;;;;11.70;76.31;93300.34;5048341;28;20482;-44
2021/06/10 02:10:44;;;;;;;19.00;5.63;;;;;;;11.59;76.87;93300.72;5049723;28;20033;-44
2021/06/10 02:13:10;;;;;;;5.13;3.33;;;;;;;11.49;77.38;93301.88;5049546;28;20556;-47
2021/06/10 02:15:36;;;;;;;4.97;3.45;;;;;;;11.58;76.71;93298.53;5049747;28;20029;-47
2021/06/10 02:18:02;;;;;;;6.10;3.60;;;;;;;11.50;76.43;93281.22;5049893;28;20044;-45
2021/06/10 02:20:27;;;;;;;4.28;2.95;;;;;;;11.49;76.73;93304.63;5049226;28;20045;-47
2021/06/10 02:22:53;;;;;;;5.65;3.30;;;;;;;11.43;77.70;93299.31;5049955;28;20032;-45
2021/06/10 02:25:19;;;;;;;6.10;3.10;;;;;;;11.43;78.45;93291.72;5049622;28;20451;-45
2021/06/10 02:27:45;;;;;;;3.45;2.65;;;;;;;11.54;79.36;93301.69;5050020;28;20064;-45
2021/06/10 02:30:12;;;;;;;5.38;2.88;;;;;;;11.65;78.86;93304.00;5049580;28;20032;-44
2021/06/10 02:32:38;;;;;;;4.78;3.30;;;;;;;11.75;78.80;93296.63;5052025;28;20033;-47
2021/06/10 02:35:05;;;;;;;2.58;2.38;;;;;;;11.58;79.00;93304.78;5049483;28;20025;-43
2021/06/10 02:37:31;;;;;;;5.65;2.67;;;;;;;11.52;79.29;93298.72;5050883;28;20028;-40
2021/06/10 02:39:56;;;;;;;6.22;3.58;;;;;;;11.56;79.04;93312.91;5069331;28;20076;-42
2021/06/10 02:42:22;;;;;;;4.32;3.22;;;;;;;11.58;78.80;93313.09;5068926;28;20489;-41
2021/06/10 02:44:52;;;;;;;7.57;4.00;;;;;;;11.63;77.69;93314.88;5068395;28;20382;-39
2021/06/10 02:47:19;;;;;;;3.72;3.30;;;;;;;11.54;77.91;93307.22;5068507;28;20025;-39
2021/06/10 02:49:46;;;;;;;6.57;3.38;;;;;;;11.58;78.19;93304.78;5069327;28;20021;-40
2021/06/10 02:52:14;;;;;;;4.40;2.55;;;;;;;11.55;78.36;93305.16;5068362;28;20095;-42
2021/06/10 02:54:39;;;;;;;4.90;3.20;;;;;;;11.54;78.92;93303.69;5069206;28;20020;-43
2021/06/10 02:57:06;;;;;;;13.60;3.90;;;;;;;11.62;78.78;93299.59;5069216;28;20032;-43
2021/06/10 02:59:33;;;;;;;5.00;2.83;;;;;;;11.56;78.80;93304.63;5059341;28;20351;-42
2021/06/10 03:01:59;;;;;;;4.07;2.47;;;;;;;11.58;78.82;93299.25;5068293;28;20095;-42
2021/06/10 03:04:24;;;;;;;7.07;4.05;;;;;;;11.61;78.59;93295.34;5069043;28;20024;-43
2021/06/10 03:06:50;;;;;;;5.53;3.05;;;;;;;11.62;78.60;93299.59;5068497;28;20569;-45
2021/06/10 03:09:17;;;;;;;5.78;3.53;;;;;;;11.70;78.19;93299.59;5072852;28;20024;-45
2021/06/10 03:11:44;;;;;;;8.88;4.80;;;;;;;11.79;77.98;93302.50;5073324;28;20028;-44
2021/06/10 03:14:10;;;;;;;6.72;3.60;;;;;;;11.80;78.45;93294.97;5071985;28;20039;-43
2021/06/10 03:16:37;;;;;;;6.68;3.83;;;;;;;11.79;78.48;93304.53;5073064;28;20085;-43
2021/06/10 03:19:02;;;;;;;6.88;3.05;;;;;;;11.77;77.75;93307.13;5071945;28;20032;-44
2021/06/10 03:21:28;;;;;;;6.90;3.67;;;;;;;11.71;77.89;93312.13;5073014;28;20408;-43
2021/06/10 03:23:54;;;;;;;6.32;3.78;;;;;;;11.67;78.09;93309.75;5073102;28;20516;-43
2021/06/10 03:26:22;;;;;;;4.22;2.50;;;;;;;11.68;78.47;93308.47;5072643;28;20025;-43
2021/06/10 03:28:48;;;;;;;5.60;3.55;;;;;;;11.65;78.16;93306.78;5062497;28;20085;-43
2021/06/10 03:31:14;;;;;;;4.82;3.15;;;;;;;11.57;78.90;93308.84;5051575;28;20029;-43
2021/06/10 03:33:39;;;;;;;3.30;2.67;;;;;;;11.52;78.92;93307.00;5052811;28;20494;-42
2021/06/10 03:36:06;;;;;;;3.95;2.72;;;;;;;11.53;79.41;93313.28;5050900;28;20028;-42
2021/06/10 03:38:31;;;;;;;5.78;3.28;;;;;;;11.59;79.70;93320.06;5061007;28;20024;-41
2021/06/10 03:40:58;;;;;;;3.65;3.33;;;;;;;11.68;78.76;93321.53;5070936;28;20102;-42
2021/06/10 03:43:24;;;;;;;3.65;2.15;;;;;;;11.53;78.35;93316.03;5072659;28;20074;-43
2021/06/10 03:45:50;;;;;;;2.95;2.42;;;;;;;11.55;78.07;93319.72;5071034;28;20020;-42
2021/06/10 03:48:16;;;;;;;3.47;2.25;;;;;;;11.62;77.75;93315.47;5070806;28;20520;-41
2021/06/10 03:50:42;;;;;;;4.20;2.70;;;;;;;11.63;78.05;93314.19;5071870;28;20028;-42
2021/06/10 03:53:08;;;;;;;2.30;2.10;;;;;;;11.70;77.25;93316.19;5071126;28;20036;-42
2021/06/10 03:55:34;;;;;;;2.50;2.08;;;;;;;11.85;77.27;93313.34;5072442;28;20583;-42
2021/06/10 03:58:00;;;;;;;3.95;2.75;;;;;;;11.79;77.90;93319.09;5072080;28;20051;-42
2021/06/10 04:00:25;;;;;;;3.20;1.95;;;;;;;11.79;78.58;93323.91;5072199;28;20024;-42
2021/06/10 04:02:51;;;;;;;1.85;1.67;;;;;;;11.95;78.20;93320.50;5071964;28;20489;-42
2021/06/10 04:05:16;;;;;;;3.50;2.53;;;;;;;11.81;78.25;93310.97;5072177;28;20024;-41
2021/06/10 04:07:42;;;;;;;3.80;2.63;;;;;;;12.00;78.42;93322.31;5072227;28;20420;-42
2021/06/10 04:10:08;;;;;;;4.05;2.67;;;;;;;12.17;78.75;93318.94;5071862;28;20061;-41
2021/06/10 04:12:33;;;;;;;2.80;2.33;;;;;;;12.27;78.65;93317.00;5072080;28;20486;-40
2021/06/10 04:14:59;;;;;;;3.13;2.33;;;;;;;12.31;78.21;93300.75;5072017;28;20016;-40
2021/06/10 04:17:24;;;;;;;2.88;1.88;;;;;;;12.44;78.02;93324.66;5071451;28;20058;-41
2021/06/10 04:19:50;;;;;;;2.50;2.25;;;;;;;12.44;77.09;93324.66;5071049;28;20020;-39
2021/06/10 04:22:16;;;;;;;2.13;1.70;;;;;;;12.50;76.55;93319.63;5071332;28;20107;-40
2021/06/10 04:24:42;;;;;;;2.22;1.70;;;;;;;12.55;76.06;93326.97;5071560;28;20021;-39
2021/06/10 04:27:08;;;;;;;3.35;1.80;;;;;;;12.47;76.47;93313.19;5071831;28;20516;-40
2021/06/10 04:29:34;;;;;;;1.05;0.98;;;;;;;12.67;76.42;93314.88;5071716;28;20039;-43
2021/06/10 04:31:59;;;;;;;2.17;1.98;;;;;;;12.70;75.88;93305.44;5071700;28;20025;-42
2021/06/10 04:34:25;;;;;;;2.25;1.80;;;;;;;12.69;76.30;93297.72;5069666;28;20028;-39
2021/06/10 04:36:50;;;;;;;4.60;1.85;;;;;;;12.69;76.44;93306.03;5066465;28;20052;-40
2021/06/10 04:39:16;;;;;;;1.98;1.83;;;;;;;12.64;76.53;93304.94;5054850;28;20108;-43
2021/06/10 04:41:41;;;;;;;2.90;2.13;;;;;;;12.58;76.07;93300.94;5051494;28;20033;-39
2021/06/10 04:44:07;;;;;;;1.85;1.60;;;;;;;12.65;76.53;93300.13;5051373;28;20036;-43
2021/06/10 04:46:35;;;;;;;2.65;2.15;;;;;;;12.45;77.05;93303.97;5051552;28;20040;-40
2021/06/10 04:49:01;;;;;;;1.77;1.60;;;;;;;12.28;77.79;93303.91;5051642;28;20033;-39
2021/06/10 04:51:27;;;;;;;1.20;1.08;;;;;;;12.39;76.88;93301.44;5051000;28;20060;-39
2021/06/10 04:53:53;;;;;;;1.75;0.98;;;;;;;12.32;76.90;93310.53;5051067;28;20029;-38
2021/06/10 04:56:20;;;;;;;1.35;1.25;;;;;;;12.35;77.78;93297.56;5051342;28;20021;-38
2021/06/10 04:58:46;;;;;;;1.52;1.42;;;;;;;12.38;78.35;93296.47;5050909;28;20498;-40
2021/06/10 05:01:11;;;;;;;1.40;1.30;;;;;;;12.58;78.31;93309.97;5051198;28;20054;-45
2021/06/10 05:03:37;;;;;;;5.35;2.00;;;;;;;12.74;77.79;93307.81;5050938;28;20025;-42
2021/06/10 05:06:02;;;;;;;1.75;1.42;;;;;;;12.85;77.60;93305.31;5050589;28;20025;-42
2021/06/10 05:08:28;;;;;;;3.63;1.42;;;;;;;12.88;77.75;93301.44;5050873;28;20029;-40
2021/06/10 05:10:54;;;;;;;1.50;1.40;;;;;;;12.97;77.54;93302.84;5050745;28;20025;-40
2021/06/10 05:13:19;;;;;;;2.17;1.65;;;;;;;13.04;77.60;93296.47;5050958;28;20025;-43
2021/06/10 05:15:44;;;;;;;1.85;1.75;;;;;;;13.14;77.80;93293.81;5050727;28;20391;-42
2021/06/10 05:18:10;;;;;;;2.13;1.92;;;;;;;13.19;78.02;93298.41;5056358;28;20079;-43
2021/06/10 05:20:36;;;;;;;1.63;1.48;;;;;;;13.28;78.09;93306.06;5070819;28;20082;-41
2021/06/10 05:23:01;;;;;;;3.22;2.70;;;;;;;13.32;77.87;93303.63;5061952;28;20032;-41
2021/06/10 05:25:27;;;;;;;2.67;1.77;;;;;;;13.45;77.94;93300.50;5050658;28;20494;-40
2021/06/10 05:27:52;;;;;;;2.88;2.15;;;;;;;13.53;78.38;93292.88;5050468;28;20573;-41
2021/06/10 05:30:19;;;;;;;3.90;2.38;;;;;;;13.56;78.66;93294.47;5049742;28;20025;-41
2021/06/10 05:32:44;;;;;;;3.17;2.47;;;;;;;13.72;78.95;93293.00;5050048;28;20033;-41
2021/06/10 05:35:10;;;;;;;2.97;2.67;;;;;;;13.86;78.84;93290.63;5050189;28;20032;-41
2021/06/10 05:37:36;;;;;;;3.35;2.05;;;;;;;13.91;79.01;93287.59;5052114;28;20047;-42
2021/06/10 05:40:02;;;;;;;5.43;3.40;;;;;;;14.09;79.48;93294.56;5069610;28;20518;-43
2021/06/10 05:42:27;;;;;;;5.30;4.68;;;;;;;14.14;79.85;93290.78;5069962;28;20197;-40
2021/06/10 05:44:53;;;;;;;3.95;3.42;;;;;;;14.24;79.52;93294.38;5069881;28;20098;-43
2021/06/10 05:47:18;;;;;;;6.65;3.83;;;;;;;14.31;80.76;93287.28;5069773;28;20027;-39
2021/06/10 05:49:44;;;;;;;6.93;5.00;;;;;;;14.40;81.80;93283.81;5069662;28;20078;-39
2021/06/10 05:52:09;;;;;;;11.43;7.63;;;;;;;14.57;81.83;93302.44;5070129;28;20032;-39
2021/06/10 05:54:34;;;;;;;7.30;4.88;;;;;;;14.67;83.20;93312.28;5065623;28;20494;-39
2021/06/10 05:57:00;;;;;;;8.93;4.88;;;;;;;14.85;82.96;93308.13;5053040;28;20033;-39
2021/06/10 05:59:26;;;;;;;6.63;4.15;;;;;;;15.04;83.03;93299.09;5064064;28;20573;-39
2021/06/10 06:01:52;;;;;;;4.68;4.03;;;;;;;15.15;83.33;93309.66;5053770;28;20445;-38
2021/06/10 06:04:18;;;;;;;5.35;3.85;;;;;;;15.26;83.08;93303.53;5048556;28;20170;-39
2021/06/10 06:06:44;;;;;;;5.57;3.38;;;;;;;15.42;82.02;93301.22;5053093;28;20024;-38
2021/06/10 06:09:10;;;;;;;8.15;3.88;;;;;;;15.50;81.57;93301.84;5048635;28;20028;-42
2021/06/10 06:11:35;;;;;;;4.10;3.22;;;;;;;15.71;81.21;93301.97;5047662;28;20151;-41
2021/06/10 06:14:09;;;;;;;4.88;2.67;;;;;;;15.79;79.41;93305.34;5047779;28;20029;-42
2021/06/10 06:16:36;;;;;;;4.85;3.92;;;;;;;15.94;79.30;93305.03;5048626;28;20037;-41
2021/06/10 06:19:04;;;;;;;3.08;2.78;;;;;;;16.09;78.80;93309.59;5051455;28;20036;-41
2021/06/10 06:21:29;;;;;;;4.57;3.78;;;;;;;16.18;78.85;93315.13;5055373;28;20127;-41
2021/06/10 06:23:57;;;;;;;4.63;3.50;;;;;;;16.34;78.74;93318.34;5048493;28;20029;-42
2021/06/10 06:26:22;;;;;;;4.35;2.97;;;;;;;16.44;79.48;93319.03;5048539;28;20494;-41
2021/06/10 06:28:48;;;;;;;6.32;3.58;;;;;;;16.58;79.52;93326.38;5048463;28;20029;-42
2021/06/10 06:31:13;;;;;;;6.40;3.58;;;;;;;16.76;79.75;93320.59;5048530;28;20602;-42
2021/06/10 06:33:39;;;;;;;4.20;2.70;;;;;;;17.08;78.65;93329.13;5067223;28;20477;-42
2021/06/10 06:36:05;;;;;;;4.45;2.92;;;;;;;17.26;78.42;93335.91;5052923;28;20662;-41
2021/06/10 06:38:31;;;;;;;6.32;3.03;;;;;;;17.33;77.28;93337.06;5057949;28;20040;-44
2021/06/10 06:40:56;;;;;;;5.53;2.47;;;;;;;17.50;76.53;93344.47;5067905;28;20053;-41
2021/06/10 06:43:24;;;;;;;6.07;3.42;;;;;;;17.74;76.17;93330.06;5067840;28;20032;-40
2021/06/10 06:45:49;;;;;;;3.78;2.70;;;;;;;17.86;74.09;93338.53;5068005;28;20111;-42
2021/06/10 06:48:14;;;;;;;4.80;2.78;;;;;;;17.97;72.94;93351.81;5068061;28;20033;-40
2021/06/10 06:50:40;;;;;;;5.15;2.65;;;;;;;17.87;71.73;93340.72;5068147;28;20062;-42
2021/06/10 06:53:06;;;;;;;3.33;3.03;;;;;;;17.83;71.59;93353.66;5060491;28;20097;-41
2021/06/10 06:55:31;;;;;;;2.58;2.38;;;;;;;17.72;71.59;93343.91;5048202;28;20028;-41
2021/06/10 06:57:57;;;;;;;2.85;2.50;;;;;;;17.92;71.87;93353.63;5048320;28;20037;-42
2021/06/10 07:00:23;;;;;;;3.97;2.63;;;;;;;17.92;70.47;93364.78;5055839;28;20482;-42
2021/06/10 07:02:49;;;;;;;3.10;2.78;;;;;;;17.91;69.13;93359.81;5057917;28;20032;-42
2021/06/10 07:05:14;;;;;;;2.10;1.98;;;;;;;17.95;69.58;93357.97;5057315;28;20482;-43
2021/06/10 07:07:40;;;;;;;2.83;2.33;;;;;;;17.95;69.96;93357.28;5056361;28;20043;-42
2021/06/10 07:10:06;;;;;;;2.95;1.83;;;;;;;18.13;69.90;93364.03;5058313;28;20035;-42
2021/06/10 07:12:31;;;;;;;2.85;2.47;;;;;;;18.15;69.21;93361.34;5057009;28;20453;-42
2021/06/10 07:14:57;;;;;;;6.28;2.47;;;;;;;18.17;68.44;93365.03;5056832;28;20735;-43
2021/06/10 07:17:24;;;;;;;3.10;2.80;;;;;;;18.31;68.72;93367.25;5056225;28;20032;-41
2021/06/10 07:19:52;;;;;;;2.90;2.50;;;;;;;18.42;68.74;93361.72;5057573;28;20063;-40
2021/06/10 07:22:17;;;;;;;3.20;2.22;;;;;;;18.59;67.46;93371.88;5057619;28;20025;-42
2021/06/10 07:24:46;;;;;;;6.03;3.45;;;;;;;18.65;67.34;93372.25;5055612;28;20025;-41
2021/06/10 07:27:12;;;;;;;2.30;2.00;;;;;;;18.66;65.72;93379.34;5056933;28;20524;-41
2021/06/10 07:29:37;;;;;;;3.05;1.70;;;;;;;18.84;65.90;93372.09;5057037;28;20060;-41
2021/06/10 07:32:04;;;;;;;2.00;1.50;;;;;;;19.06;65.40;93376.25;5057964;28;20038;-42
2021/06/10 07:34:29;;;;;;;2.25;2.05;;;;;;;19.50;65.18;93373.38;5055914;28;20024;-43
2021/06/10 07:36:55;;;;;;;1.58;1.13;;;;;;;20.31;60.49;93366.91;5056605;28;20502;-42
2021/06/10 07:39:20;;;;;;;2.00;1.52;;;;;;;20.65;60.68;93366.03;5057413;28;20090;-42
2021/06/10 07:41:45;;;;;;;1.80;1.45;;;;;;;20.82;58.25;93373.25;5057266;28;20082;-42
2021/06/10 07:44:11;;;;;;;1.30;1.20;;;;;;;20.84;53.95;93364.94;5056622;28;20032;-41
2021/06/10 07:46:36;;;;;;;2.78;1.58;;;;;;;21.30;53.87;93363.94;5057397;28;20031;-43
2021/06/10 07:49:03;;;;;;;1.23;1.10;;;;;;;22.58;50.98;93370.53;5057517;28;20020;-44
2021/06/10 07:51:28;;;;;;;1.05;0.93;;;;;;;23.08;46.45;93366.59;5057620;28;20057;-46
2021/06/10 07:53:53;;;;;;;4.72;2.20;;;;;;;22.68;49.26;93375.94;5052824;28;20409;-43
2021/06/10 07:56:19;;;;;;;1.85;1.17;;;;;;;23.24;49.87;93375.03;5060534;28;20151;-43
2021/06/10 07:58:44;;;;;;;4.25;1.85;;;;;;;23.56;47.20;93375.81;5056825;28;20155;-43
2021/06/10 08:01:10;;;;;;;3.63;1.90;;;;;;;23.51;45.92;93368.53;5057935;28;20024;-43
2021/06/10 08:03:37;;;;;;;1.65;1.40;;;;;;;23.05;48.37;93392.47;5058160;28;20052;-43
2021/06/10 08:06:02;;;;;;;1.38;1.27;;;;;;;22.67;49.45;93387.81;5057214;28;20451;-42
2021/06/10 08:08:28;;;;;;;1.55;1.20;;;;;;;22.14;52.08;93393.63;5057074;28;20365;-43
2021/06/10 08:10:54;;;;;;;1.25;1.15;;;;;;;21.61;52.74;93393.00;5057463;28;20589;-43
2021/06/10 08:13:22;;;;;;;2.05;1.75;;;;;;;21.14;55.48;93392.59;5056772;28;20743;-43
2021/06/10 08:15:50;;;;;;;2.03;1.83;;;;;;;20.90;56.45;93391.25;5056949;28;20029;-44
2021/06/10 08:18:16;;;;;;;2.58;1.60;;;;;;;20.47;56.55;93398.66;5056846;28;20036;-44
2021/06/10 08:20:41;;;;;;;2.40;1.77;;;;;;;20.25;56.93;93397.38;5061376;28;20039;-42
2021/06/10 08:23:07;;;;;;;1.75;1.50;;;;;;;20.03;57.67;93388.38;5056929;28;20819;-42
2021/06/10 08:25:33;;;;;;;2.75;1.80;;;;;;;20.04;56.68;93377.91;5057301;28;20525;-43
2021/06/10 08:28:02;;;;;;;1.30;1.20;;;;;;;19.96;56.15;93391.47;5060342;28;20537;-45
2021/06/10 08:30:28;;;;;;;1.70;1.58;;;;;;;19.64;56.55;93393.81;5062666;28;20051;-42
2021/06/10 08:32:55;;;;;;;1.55;1.45;;;;;;;19.32;58.35;93396.69;5057617;28;20028;-42
2021/06/10 08:35:20;;;;;;;1.60;1.50;;;;;;;19.29;58.47;93397.94;5055295;28;20033;-42
2021/06/10 08:37:46;;;;;;;2.35;2.13;;;;;;;19.16;58.59;93399.25;5060649;28;20409;-43
2021/06/10 08:40:14;;;;;;;1.65;1.55;;;;;;;19.17;58.33;93403.50;5063245;28;20063;-42
2021/06/10 08:42:41;;;;;;;1.40;1.30;;;;;;;19.08;57.31;93395.94;5062981;28;20047;-42
2021/06/10 08:45:11;;;;;;;3.83;1.80;;;;;;;19.00;59.09;93389.88;5066007;28;20028;-44
2021/06/10 08:47:39;;;;;;;1.80;1.30;;;;;;;18.95;61.02;93399.34;5055982;28;20134;-44
2021/06/10 08:50:06;;;;;;;1.88;1.70;;;;;;;18.93;59.77;93399.94;5055491;28;20085;-42
2021/06/10 08:52:40;;;;;;;4.10;2.20;;;;;;;19.01;58.68;93394.13;5056330;28;20486;-42
2021/06/10 08:55:07;;;;;;;3.53;2.60;;;;;;;19.18;57.75;93402.19;5055489;28;20055;-42
2021/06/10 08:57:34;;;;;;;3.75;2.65;;;;;;;19.19;58.23;93394.53;5056587;28;20074;-44
2021/06/10 09:00:00;;;;;;;2.75;2.00;;;;;;;19.27;59.72;93397.81;5057358;28;20119;-41
2021/06/10 09:02:26;;;;;;;3.05;2.20;;;;;;;19.32;61.73;93379.91;5055274;28;20115;-43
2021/06/10 09:04:51;;;;;;;2.83;1.90;;;;;;;19.62;62.40;93395.78;5056560;28;20165;-41
2021/06/10 09:07:19;;;;;;;1.65;1.55;;;;;;;19.78;61.35;93391.13;5056799;28;20025;-42
2021/06/10 09:09:48;;;;;;;1.33;1.23;;;;;;;19.94;61.01;93391.34;5054718;28;20115;-42
2021/06/10 09:12:13;;;;;;;1.80;1.55;;;;;;;20.23;60.88;93394.47;5055437;28;20024;-43
2021/06/10 09:15:00;;;;;;;1.92;1.70;;;;;;;20.35;59.32;93386.75;5057221;28;20102;-43
2021/06/10 09:17:36;;;;;;;1.85;1.50;;;;;;;20.62;57.93;93384.06;5047913;28;20044;-42
2021/06/10 09:20:22;;;;;;;1.67;1.40;;;;;;;20.37;56.37;93370.06;5047548;28;20036;-43
2021/06/10 09:22:49;;;;;;;1.40;1.30;;;;;;;20.40;56.22;93380.03;5053634;28;20122;-43
2021/06/10 09:25:21;;;;;;;1.30;1.20;;;;;;;20.45;55.25;93381.72;5067260;28;20036;-42
2021/06/10 09:27:50;;;;;;;3.33;1.80;;;;;;;20.37;55.31;93381.25;5066250;28;20471;-42
2021/06/10 09:30:47;;;;;;;3.22;1.52;;;;;;;20.35;54.34;93373.47;5067290;28;20040;-43
2021/06/10 09:33:16;;;;;;;1.48;1.38;;;;;;;20.42;55.38;93369.66;5060414;28;20106;-42
2021/06/10 09:35:43;;;;;;;2.47;2.10;;;;;;;20.48;53.79;93372.09;5053786;28;20037;-42
2021/06/10 09:38:15;;;;;;;2.28;1.48;;;;;;;20.31;54.00;93381.63;5054093;28;20032;-42
2021/06/10 09:40:40;;;;;;;1.33;1.23;;;;;;;20.31;55.37;93375.31;5066957;28;20131;-43
2021/06/10 09:43:06;;;;;;;1.98;1.60;;;;;;;20.27;54.38;93338.66;5067028;28;20185;-42
2021/06/10 09:45:32;;;;;;;2.80;1.48;;;;;;;20.60;55.20;93369.94;5066785;28;20028;-41
2021/06/10 09:48:00;;;;;;;1.38;1.27;;;;;;;20.72;53.96;93379.03;5063779;28;20055;-42
2021/06/10 09:50:29;;;;;;;2.22;1.17;;;;;;;20.87;52.84;93375.66;5045515;28;20060;-42
2021/06/10 09:52:59;;;;;;;1.60;1.38;;;;;;;21.05;52.12;93371.06;5045609;28;20613;-42
2021/06/10 09:55:34;;;;;;;1.73;1.33;;;;;;;21.53;51.97;93372.16;5046550;28;20029;-42
2021/06/10 09:58:11;;;;;;;1.27;1.02;;;;;;;22.15;48.37;93371.88;5046655;28;20039;-42
2021/06/10 10:00:37;;;;;;;1.20;0.98;;;;;;;23.27;48.68;93370.97;5046731;28;20040;-42
2021/06/10 10:03:03;;;;;;;0.98;0.98;;;;;;;24.17;44.68;93365.13;5046774;28;20037;-40
2021/06/10 10:05:28;;;;;;;1.35;1.10;;;;;;;25.44;42.95;93351.94;5051274;28;20028;-42
2021/06/10 10:07:53;;;;;;;0.73;0.73;;;;;;;26.87;38.50;93350.56;5059415;28;20028;-42
2021/06/10 10:10:20;;;;;;;0.80;0.80;;;;;;;27.49;38.46;93346.84;5048402;28;20029;-42
2021/06/10 10:12:47;;;;;;;1.17;0.88;;;;;;;27.31;36.36;93339.91;5049015;28;20035;-43
2021/06/10 10:15:14;;;;;;;0.80;0.80;;;;;;;26.98;33.79;93338.19;5048853;28;20402;-43
2021/06/10 10:17:40;;;;;;;1.75;0.82;;;;;;;27.06;35.98;93332.75;5047936;28;20115;-40
2021/06/10 10:20:07;;;;;;;1.00;0.90;;;;;;;27.26;36.12;93335.47;5048638;28;20033;-41
2021/06/10 10:22:35;;;;;;;1.30;0.60;;;;;;;27.57;35.30;93335.03;5050031;28;20039;-39
2021/06/10 10:25:01;;;;;;;0.57;0.47;;;;;;;28.72;33.82;93326.81;5068249;28;20059;-43
2021/06/10 10:27:27;;;;;;;0.98;0.70;;;;;;;29.45;30.73;93312.91;5067162;28;20055;-46
2021/06/10 10:29:54;;;;;;;0.40;0.40;;;;;;;30.80;30.01;93311.97;5068427;28;20028;-41
2021/06/10 10:32:25;;;;;;;0.95;0.90;;;;;;;31.99;26.28;93318.03;5056524;28;20163;-41
2021/06/10 10:34:51;;;;;;;0.20;0.20;;;;;;;32.50;24.61;93318.63;5048214;28;20017;-41
2021/06/10 10:37:25;;;;;;;0.30;0.22;;;;;;;32.41;23.49;93312.06;5048348;28;20028;-43
2021/06/10 10:39:53;;;;;;;0.20;0.20;;;;;;;32.92;24.70;93315.44;5047680;28;20049;-41
2021/06/10 10:42:27;;;;;;;0.40;0.40;;;;;;;33.64;24.45;93304.53;5048381;28;20104;-42
2021/06/10 10:45:09;;;;;;;0.40;0.40;;;;;;;33.44;21.89;93304.41;5048049;28;20502;-42
2021/06/10 10:50:50;;;;;;;0.65;0.32;;;;;;;32.48;21.54;93290.75;5048076;28;20025;-43
2021/06/10 10:53:26;;;;;;;0.35;0.30;;;;;;;31.73;20.66;93289.13;5047526;28;20041;-41
2021/06/10 10:56:06;;;;;;;0.50;0.50;;;;;;;31.54;22.83;93278.16;5047883;28;20110;-43
2021/06/10 10:58:32;;;;;;;0.50;0.47;;;;;;;31.72;22.00;93266.97;5048056;28;20464;-40
2021/06/10 11:01:02;;;;;;;1.08;0.40;;;;;;;31.91;21.87;93277.19;5047977;28;20029;-42
2021/06/10 11:03:40;;;;;;;0.85;0.50;;;;;;;32.14;21.56;93273.19;5058456;28;20533;-39
2021/06/10 11:06:21;;;;;;;0.35;0.35;;;;;;;32.20;22.19;93278.28;5048005;28;20090;-42
2021/06/10 11:08:59;;;;;;;1.23;0.40;;;;;;;31.99;23.08;93269.47;5048320;28;20044;-41
2021/06/10 11:11:56;;;;;;;0.40;0.40;;;;;;;31.71;22.29;93276.94;5047884;28;20498;-41
2021/06/10 11:14:42;;;;;;;0.57;0.57;;;;;;;30.88;26.19;93267.22;5047741;28;20071;-42
2021/06/10 11:17:14;;;;;;;0.77;0.60;;;;;;;29.68;24.93;93263.59;5048132;28;20041;-40
2021/06/10 11:20:14;;;;;;;0.65;0.60;;;;;;;28.99;25.38;93267.06;5045711;28;20041;-40
2021/06/10 11:22:43;;;;;;;0.60;0.60;;;;;;;28.55;26.17;93263.16;5045674;28;20029;-43
2021/06/10 11:25:17;;;;;;;0.57;0.47;;;;;;;28.25;27.24;93260.28;5046990;28;20488;-46
2021/06/10 11:27:45;;;;;;;0.47;0.40;;;;;;;28.11;29.39;93250.69;5047860;28;20421;-42
2021/06/10 11:30:25;;;;;;;0.53;0.53;;;;;;;27.52;28.98;93257.63;5049948;28;20563;-43
2021/06/10 11:33:04;;;;;;;0.40;0.40;;;;;;;27.63;30.29;93258.63;5051886;28;20036;-45
2021/06/10 11:35:32;;;;;;;0.43;0.43;;;;;;;27.49;30.74;93261.03;5055304;28;20040;-43
2021/06/10 11:37:59;;;;;;;0.63;0.40;;;;;;;27.00;32.45;93253.22;5066096;28;20131;-42